Time;durP1;ratioP1;P1;durP2;ratioP2;P2;SDS_P1;SDS_P2;PMS_P1;PMS_P2;Temp;Humidity;BMP_temperature;BMP_pressure;BME280_temperature;BME280_humidity;BME280_pressure;Samples;Min_cycle;Max_cycle;Signal;HPM_P1;HPM_P2
2023/03/17 00:00:56;;;;;;;6.05;3.83;;;;;;;;;;10373117;28;20445;-58
2023/03/17 00:05:58;;;;;;;5.38;3.10;;;;;;;;;;10373141;28;20596;-58
2023/03/17 00:10:59;;;;;;;7.65;3.97;;;;;;;;;;10371722;28;20482;-58
2023/03/17 00:16:06;;;;;;;6.40;3.42;;;;;;;;;;10373136;28;20109;-58
2023/03/17 00:21:13;;;;;;;10.18;3.33;;;;;;;;;;10373064;28;20032;-58
2023/03/17 00:26:14;;;;;;;5.03;3.10;;;;;;;;;;10371666;28;20038;-59
2023/03/17 00:31:22;;;;;;;5.03;2.90;;;;;;;;;;10372684;28;20025;-59
2023/03/17 00:36:29;;;;;;;3.53;3.00;;;;;;;;;;10354826;28;20382;-58
2023/03/17 00:41:30;;;;;;;3.75;3.00;;;;;;;;;;10372299;28;20030;-59
2023/03/17 00:46:36;;;;;;;8.82;3.20;;;;;;;;;;10371269;28;20116;-59
2023/03/17 00:51:37;;;;;;;4.90;3.10;;;;;;;;;;10371399;28;20658;-59
2023/03/17 00:56:39;;;;;;;6.35;2.72;;;;;;;;;;10371621;28;20018;-58
2023/03/17 01:01:39;;;;;;;6.00;2.95;;;;;;;;;;10370713;28;20381;-58
2023/03/17 01:06:40;;;;;;;6.18;3.33;;;;;;;;;;10370770;28;20029;-59
2023/03/17 01:11:42;;;;;;;4.20;3.00;;;;;;;;;;10370643;28;20149;-58
2023/03/17 01:16:43;;;;;;;5.47;3.05;;;;;;;;;;10371358;28;20109;-58
2023/03/17 01:21:45;;;;;;;4.97;3.10;;;;;;;;;;10369140;28;20092;-58
2023/03/17 01:26:45;;;;;;;4.88;3.13;;;;;;;;;;10370298;28;20385;-58
2023/03/17 01:31:46;;;;;;;6.38;3.47;;;;;;;;;;10369502;28;20026;-58
2023/03/17 01:36:47;;;;;;;4.40;2.80;;;;;;;;;;10369552;28;20052;-58
2023/03/17 01:41:47;;;;;;;4.18;2.63;;;;;;;;;;10369227;28;20045;-58
2023/03/17 01:46:48;;;;;;;4.47;2.97;;;;;;;;;;10369165;28;20131;-58
2023/03/17 01:52:16;;;;;;;5.57;3.33;;;;;;;;;;10369013;28;20466;-58
2023/03/17 01:57:36;;;;;;;3.67;2.78;;;;;;;;;;10368791;28;20358;-58
2023/03/17 02:02:41;;;;;;;3.20;2.65;;;;;;;;;;10367221;28;20371;-59
2023/03/17 02:07:43;;;;;;;3.47;2.90;;;;;;;;;;10368369;28;20441;-58
2023/03/17 02:12:46;;;;;;;5.22;2.95;;;;;;;;;;10368722;28;20018;-58
2023/03/17 02:17:47;;;;;;;2.97;2.67;;;;;;;;;;10367611;28;20037;-59
2023/03/17 02:22:51;;;;;;;4.18;3.20;;;;;;;;;;10368353;28;20041;-59
2023/03/17 02:27:58;;;;;;;5.55;3.20;;;;;;;;;;10367889;28;20044;-59
2023/03/17 02:32:59;;;;;;;3.40;2.58;;;;;;;;;;10368800;28;20025;-59
2023/03/17 02:37:59;;;;;;;3.38;2.47;;;;;;;;;;10368036;28;20477;-58
2023/03/17 02:43:01;;;;;;;5.32;2.85;;;;;;;;;;10367147;28;20482;-59
2023/03/17 02:48:02;;;;;;;4.35;3.10;;;;;;;;;;10367456;28;20124;-59
2023/03/17 02:53:03;;;;;;;3.13;2.65;;;;;;;;;;10367872;28;20034;-59
2023/03/17 02:58:04;;;;;;;4.90;2.80;;;;;;;;;;10367214;28;20037;-59
2023/03/17 03:03:04;;;;;;;3.47;3.03;;;;;;;;;;10367482;28;20022;-58
2023/03/17 03:08:05;;;;;;;3.40;2.70;;;;;;;;;;10367616;28;20029;-59
2023/03/17 03:13:06;;;;;;;2.90;2.60;;;;;;;;;;10374779;28;20033;-58
2023/03/17 03:18:07;;;;;;;3.30;2.42;;;;;;;;;;10375929;28;20382;-59
2023/03/17 03:23:08;;;;;;;3.35;2.70;;;;;;;;;;10373913;28;20092;-58
2023/03/17 03:28:09;;;;;;;3.53;2.42;;;;;;;;;;10375092;28;20025;-58
2023/03/17 03:33:13;;;;;;;2.78;2.40;;;;;;;;;;10374705;28;20033;-58
2023/03/17 03:38:13;;;;;;;4.13;2.60;;;;;;;;;;10374595;28;20056;-58
2023/03/17 03:43:14;;;;;;;3.03;2.28;;;;;;;;;;10374421;28;20051;-58
2023/03/17 03:48:15;;;;;;;3.53;2.42;;;;;;;;;;10373560;28;20053;-58
2023/03/17 03:53:15;;;;;;;3.45;2.80;;;;;;;;;;10374136;28;20033;-58
2023/03/17 03:58:16;;;;;;;3.28;2.33;;;;;;;;;;10373937;28;20029;-59
2023/03/17 04:03:17;;;;;;;3.83;3.05;;;;;;;;;;10374050;28;20071;-59
2023/03/17 04:08:18;;;;;;;4.38;2.67;;;;;;;;;;10373153;28;20429;-59
2023/03/17 04:13:18;;;;;;;4.38;2.45;;;;;;;;;;10373375;28;20030;-59
2023/03/17 04:18:19;;;;;;;3.05;2.42;;;;;;;;;;10373218;28;20371;-59
2023/03/17 04:23:19;;;;;;;3.15;2.85;;;;;;;;;;10371900;28;20504;-59
2023/03/17 04:28:21;;;;;;;2.95;2.47;;;;;;;;;;10372436;28;20481;-60
2023/03/17 04:33:21;;;;;;;3.45;2.45;;;;;;;;;;10372612;28;20080;-59
2023/03/17 04:38:22;;;;;;;3.05;2.38;;;;;;;;;;10371959;28;20038;-59
2023/03/17 04:43:23;;;;;;;2.50;2.30;;;;;;;;;;10372082;28;20037;-58
2023/03/17 04:48:23;;;;;;;5.45;2.58;;;;;;;;;;10371433;28;20413;-59
2023/03/17 04:53:24;;;;;;;2.97;2.30;;;;;;;;;;10371405;28;20034;-59
2023/03/17 04:58:25;;;;;;;5.47;2.42;;;;;;;;;;10371657;28;20030;-58
2023/03/17 05:03:26;;;;;;;4.28;2.80;;;;;;;;;;10371329;28;20087;-58
2023/03/17 05:08:27;;;;;;;2.72;2.17;;;;;;;;;;10371684;28;20033;-59
2023/03/17 05:13:28;;;;;;;2.40;2.20;;;;;;;;;;10370638;28;20037;-59
2023/03/17 05:18:29;;;;;;;3.25;2.20;;;;;;;;;;10370743;28;20034;-59
2023/03/17 05:23:30;;;;;;;7.20;2.70;;;;;;;;;;10370442;28;20034;-60
2023/03/17 05:28:31;;;;;;;2.58;2.30;;;;;;;;;;10370478;28;20500;-58
2023/03/17 05:33:31;;;;;;;2.75;2.30;;;;;;;;;;10369374;28;20022;-59
2023/03/17 05:38:32;;;;;;;3.67;2.42;;;;;;;;;;10370630;28;20493;-59
2023/03/17 05:43:32;;;;;;;2.97;2.53;;;;;;;;;;10369525;28;20409;-59
2023/03/17 05:48:33;;;;;;;3.08;2.60;;;;;;;;;;10369001;28;20421;-59
2023/03/17 05:53:37;;;;;;;3.33;2.63;;;;;;;;;;10369137;28;20489;-58
2023/03/17 05:58:45;;;;;;;2.40;2.15;;;;;;;;;;10369126;28;20061;-59
2023/03/17 06:03:46;;;;;;;2.50;2.30;;;;;;;;;;10368027;28;20061;-58
2023/03/17 06:08:46;;;;;;;3.78;2.33;;;;;;;;;;10368539;28;20030;-59
2023/03/17 06:13:53;;;;;;;3.42;2.60;;;;;;;;;;10368673;28;20025;-58
2023/03/17 06:18:54;;;;;;;4.20;2.80;;;;;;;;;;10368722;28;20030;-58
2023/03/17 06:23:54;;;;;;;3.00;2.22;;;;;;;;;;10366747;28;20034;-58
2023/03/17 06:28:55;;;;;;;2.75;2.25;;;;;;;;;;10367625;28;20047;-57
2023/03/17 06:33:56;;;;;;;3.20;2.55;;;;;;;;;;10366997;28;20033;-58
2023/03/17 06:38:58;;;;;;;2.90;2.20;;;;;;;;;;10367988;28;20112;-58
2023/03/17 06:43:59;;;;;;;7.03;3.10;;;;;;;;;;10368501;28;20080;-58
2023/03/17 06:49:00;;;;;;;5.72;2.42;;;;;;;;;;10380468;28;20498;-58
2023/03/17 06:54:00;;;;;;;6.65;2.95;;;;;;;;;;10381500;28;20045;-59
2023/03/17 06:59:01;;;;;;;11.82;3.47;;;;;;;;;;10380019;28;20192;-59
2023/03/17 07:04:02;;;;;;;10.48;3.72;;;;;;;;;;10380812;28;20045;-59
2023/03/17 07:09:04;;;;;;;5.93;3.55;;;;;;;;;;10379224;28;20042;-59
2023/03/17 07:14:05;;;;;;;6.15;3.47;;;;;;;;;;10378708;28;20121;-59
2023/03/17 07:19:06;;;;;;;12.15;4.68;;;;;;;;;;10378967;28;20397;-58
2023/03/17 07:24:06;;;;;;;19.88;4.00;;;;;;;;;;10377435;28;20033;-58
2023/03/17 07:29:08;;;;;;;26.30;4.40;;;;;;;;;;10377162;28;20155;-58
2023/03/17 07:34:09;;;;;;;8.52;4.47;;;;;;;;;;10378957;28;20034;-58
2023/03/17 07:39:09;;;;;;;14.75;3.83;;;;;;;;;;10377678;28;20506;-58
2023/03/17 07:44:10;;;;;;;9.65;4.00;;;;;;;;;;10380338;28;20404;-58
2023/03/17 07:49:11;;;;;;;7.93;3.60;;;;;;;;;;10379201;28;20022;-58
2023/03/17 07:54:13;;;;;;;7.47;3.70;;;;;;;;;;10380320;28;20033;-60
2023/03/17 07:59:14;;;;;;;13.27;4.25;;;;;;;;;;10373800;28;20037;-60
2023/03/17 08:04:14;;;;;;;6.97;3.53;;;;;;;;;;10373260;28;20030;-60
2023/03/17 08:09:15;;;;;;;15.65;3.80;;;;;;;;;;10373653;28;20037;-58
2023/03/17 08:14:15;;;;;;;6.68;3.53;;;;;;;;;;10372571;28;20511;-59
2023/03/17 08:19:16;;;;;;;9.18;3.85;;;;;;;;;;10371530;28;20400;-60
2023/03/17 08:24:17;;;;;;;8.35;4.13;;;;;;;;;;10371516;28;20026;-59
2023/03/17 08:29:19;;;;;;;5.60;3.38;;;;;;;;;;10369960;28;20113;-59
2023/03/17 08:34:19;;;;;;;6.38;3.60;;;;;;;;;;10370898;28;20030;-59
2023/03/17 08:39:20;;;;;;;5.97;3.28;;;;;;;;;;10370599;28;20030;-59
2023/03/17 08:44:21;;;;;;;5.00;3.30;;;;;;;;;;10371508;28;20062;-59
2023/03/17 08:49:22;;;;;;;4.68;3.10;;;;;;;;;;10370816;28;20466;-59
2023/03/17 08:54:22;;;;;;;11.32;3.65;;;;;;;;;;10371909;28;20080;-59
2023/03/17 08:59:23;;;;;;;10.02;3.42;;;;;;;;;;10371495;28;20502;-59
2023/03/17 09:04:25;;;;;;;6.60;3.05;;;;;;;;;;10370817;28;20512;-59
2023/03/17 09:09:26;;;;;;;4.63;3.55;;;;;;;;;;10371127;28;20037;-59
2023/03/17 09:14:28;;;;;;;6.55;3.20;;;;;;;;;;10371102;28;20022;-59
2023/03/17 09:19:28;;;;;;;5.75;3.22;;;;;;;;;;10370348;28;20037;-59
2023/03/17 09:24:29;;;;;;;7.05;3.60;;;;;;;;;;10370228;28;20026;-59
2023/03/17 09:29:30;;;;;;;4.53;2.92;;;;;;;;;;10370576;28;20088;-59
2023/03/17 09:34:30;;;;;;;6.35;3.15;;;;;;;;;;10369628;28;20030;-59
2023/03/17 09:39:32;;;;;;;6.35;3.42;;;;;;;;;;10370714;28;20030;-59
2023/03/17 09:44:38;;;;;;;5.47;3.28;;;;;;;;;;10369601;28;20073;-60
2023/03/17 09:49:52;;;;;;;3.83;2.80;;;;;;;;;;10369708;28;20034;-59
2023/03/17 09:54:53;;;;;;;4.45;3.00;;;;;;;;;;10368550;28;20041;-59
2023/03/17 10:00:05;;;;;;;7.20;3.03;;;;;;;;;;10369062;28;20030;-59
2023/03/17 10:05:21;;;;;;;5.40;2.88;;;;;;;;;;10368787;28;20026;-59
2023/03/17 10:10:38;;;;;;;3.78;2.80;;;;;;;;;;10368685;28;20394;-59
2023/03/17 10:16:05;;;;;;;4.47;3.25;;;;;;;;;;10367804;28;20033;-59
2023/03/17 10:21:09;;;;;;;9.13;3.20;;;;;;;;;;10368018;28;20068;-59
2023/03/17 10:26:43;;;;;;;4.72;2.88;;;;;;;;;;10366721;28;20037;-59
2023/03/17 10:31:43;;;;;;;5.40;3.10;;;;;;;;;;10368064;28;20069;-59
2023/03/17 10:36:53;;;;;;;4.13;3.08;;;;;;;;;;10367737;28;20053;-59
2023/03/17 10:42:18;;;;;;;3.85;2.70;;;;;;;;;;10366351;28;20030;-59
2023/03/17 10:47:27;;;;;;;4.00;2.78;;;;;;;;;;10366555;28;20076;-59
2023/03/17 10:52:35;;;;;;;5.45;2.70;;;;;;;;;;10367471;28;20030;-60
2023/03/17 10:57:37;;;;;;;5.93;2.80;;;;;;;;;;10367972;28;20030;-60
2023/03/17 11:02:46;;;;;;;4.10;2.95;;;;;;;;;;10367066;28;20389;-59
2023/03/17 11:07:46;;;;;;;4.05;2.55;;;;;;;;;;10366495;28;20026;-60
2023/03/17 11:12:53;;;;;;;4.82;2.88;;;;;;;;;;10367502;28;20478;-59
2023/03/17 11:17:58;;;;;;;6.80;2.88;;;;;;;;;;10368003;28;20030;-59
2023/03/17 11:23:02;;;;;;;3.45;2.63;;;;;;;;;;10366658;28;20470;-59
2023/03/17 11:28:27;;;;;;;4.63;2.40;;;;;;;;;;10366768;28;20038;-59
2023/03/17 11:33:51;;;;;;;4.53;2.85;;;;;;;;;;10371154;28;20025;-59
2023/03/17 11:39:06;;;;;;;3.40;2.42;;;;;;;;;;10374022;28;20033;-59
2023/03/17 11:44:34;;;;;;;3.60;2.70;;;;;;;;;;10373279;28;20080;-59
2023/03/17 11:49:37;;;;;;;;;;;;;;;;;;10374504;28;20493;-59
2023/03/17 11:55:41;;;;;;;2.63;2.38;;;;;;;;;;10374162;28;19921;-59
2023/03/17 12:00:53;;;;;;;4.57;2.30;;;;;;;;;;10342641;28;20485;-59
2023/03/17 12:06:00;;;;;;;4.80;2.80;;;;;;;;;;10372104;28;20462;-59
2023/03/17 12:11:09;;;;;;;2.83;2.38;;;;;;;;;;10372317;28;20034;-59
2023/03/17 12:16:48;;;;;;;3.13;2.30;;;;;;;;;;10372330;28;20108;-59
2023/03/17 12:21:56;;;;;;;;;;;;;;;;;;10372922;28;20034;-59
2023/03/17 12:27:03;;;;;;;3.83;2.38;;;;;;;;;;10372415;28;20163;-59
2023/03/17 12:32:20;;;;;;;4.18;2.50;;;;;;;;;;10371472;28;20029;-59
2023/03/17 12:37:22;;;;;;;5.38;2.50;;;;;;;;;;10371556;28;20124;-59
2023/03/17 12:42:36;;;;;;;2.60;2.38;;;;;;;;;;10370149;28;20461;-59
2023/03/17 12:48:23;;;;;;;3.30;2.50;;;;;;;;;;10371712;28;20046;-60
2023/03/17 12:53:29;;;;;;;2.60;2.22;;;;;;;;;;10371647;28;20081;-59
2023/03/17 12:58:39;;;;;;;2.63;2.08;;;;;;;;;;10370013;28;20029;-58
2023/03/17 13:04:22;;;;;;;3.80;1.85;;;;;;;;;;10371898;28;20033;-58
2023/03/17 13:09:30;;;;;;;3.10;2.25;;;;;;;;;;10268153;28;20118;-59
2023/03/17 13:14:50;;;;;;;3.03;2.30;;;;;;;;;;10283846;28;20597;-58
2023/03/17 13:20:11;;;;;;;4.97;2.38;;;;;;;;;;10283548;28;20399;-59
2023/03/17 13:25:47;;;;;;;2.85;2.35;;;;;;;;;;10283452;28;20047;-58
2023/03/17 13:30:54;;;;;;;3.40;2.53;;;;;;;;;;10283194;28;20035;-59
2023/03/17 13:36:35;;;;;;;2.75;2.30;;;;;;;;;;10282734;28;20474;-58
2023/03/17 13:42:12;;;;;;;3.22;2.15;;;;;;;;;;10369455;28;20416;-59
2023/03/17 13:47:22;;;;;;;2.85;2.47;;;;;;;;;;10369010;28;20038;-59
2023/03/17 13:52:39;;;;;;;3.88;2.58;;;;;;;;;;10369650;28;20046;-58
2023/03/17 13:57:40;;;;;;;3.03;2.40;;;;;;;;;;10366702;28;20378;-59
2023/03/17 14:02:42;;;;;;;8.55;2.50;;;;;;;;;;10367327;28;20030;-59
2023/03/17 14:07:51;;;;;;;3.00;2.00;;;;;;;;;;10367748;28;20045;-58
2023/03/17 14:13:19;;;;;;;3.10;2.15;;;;;;;;;;10366950;28;20478;-59
2023/03/17 14:18:50;;;;;;;2.20;2.00;;;;;;;;;;10366305;28;20447;-59
2023/03/17 14:24:00;;;;;;;3.90;2.22;;;;;;;;;;10367490;28;20080;-59
2023/03/17 14:29:03;;;;;;;5.18;2.80;;;;;;;;;;10369005;28;20030;-58
2023/03/17 14:34:13;;;;;;;3.50;2.30;;;;;;;;;;10366780;28;20064;-59
2023/03/17 14:39:23;;;;;;;4.72;2.83;;;;;;;;;;10366909;28;20026;-59
2023/03/17 14:44:36;;;;;;;3.38;2.40;;;;;;;;;;10366666;28;20030;-59
2023/03/17 14:49:36;;;;;;;8.00;2.42;;;;;;;;;;10367383;28;20505;-59
2023/03/17 14:54:37;;;;;;;2.78;2.40;;;;;;;;;;10367698;28;20029;-59
2023/03/17 14:59:40;;;;;;;3.72;2.33;;;;;;;;;;10365671;28;20026;-59
2023/03/17 15:05:35;;;;;;;3.40;2.40;;;;;;;;;;10366155;28;20425;-59
2023/03/17 15:10:42;;;;;;;6.57;2.30;;;;;;;;;;10373135;28;20034;-59
2023/03/17 15:15:43;;;;;;;5.75;2.28;;;;;;;;;;10375383;28;20049;-59
2023/03/17 15:20:44;;;;;;;3.28;2.30;;;;;;;;;;10375005;28;20466;-59
2023/03/17 15:25:50;;;;;;;5.57;2.33;;;;;;;;;;10374501;28;20033;-59
2023/03/17 15:31:10;;;;;;;5.03;2.50;;;;;;;;;;10375078;28;20061;-59
2023/03/17 15:36:16;;;;;;;11.63;2.58;;;;;;;;;;10375019;28;20033;-59
2023/03/17 15:41:17;;;;;;;9.18;2.60;;;;;;;;;;10374289;28;20389;-59
2023/03/17 15:46:26;;;;;;;4.05;2.50;;;;;;;;;;10373751;28;20041;-59
2023/03/17 15:51:26;;;;;;;;;;;;;;;;;;10374479;28;20374;-59
2023/03/17 15:56:27;;;;;;;13.63;2.75;;;;;;;;;;10373745;28;19948;-59
2023/03/17 16:01:28;;;;;;;12.70;2.63;;;;;;;;;;10373278;28;20034;-59
2023/03/17 16:06:28;;;;;;;8.02;2.60;;;;;;;;;;10373399;28;20022;-59
2023/03/17 16:11:30;;;;;;;11.15;2.80;;;;;;;;;;10371938;28;20033;-58
2023/03/17 16:16:42;;;;;;;12.52;3.00;;;;;;;;;;10372401;28;20516;-58
2023/03/17 16:21:43;;;;;;;18.33;3.33;;;;;;;;;;10371949;28;20022;-59
2023/03/17 16:26:43;;;;;;;8.13;3.00;;;;;;;;;;10372992;28;20038;-59
2023/03/17 16:31:49;;;;;;;19.92;3.35;;;;;;;;;;10372339;28;20045;-60
2023/03/17 16:36:50;;;;;;;16.73;3.45;;;;;;;;;;10372508;28;20026;-60
2023/03/17 16:41:52;;;;;;;12.15;3.03;;;;;;;;;;10372054;28;20036;-60
2023/03/17 16:46:52;;;;;;;21.38;4.10;;;;;;;;;;10370416;28;20075;-60
2023/03/17 16:51:53;;;;;;;19.95;3.50;;;;;;;;;;10371027;28;20038;-60
2023/03/17 16:56:53;;;;;;;12.25;4.00;;;;;;;;;;10371266;28;20048;-60
2023/03/17 17:01:54;;;;;;;17.23;3.97;;;;;;;;;;10369798;28;20037;-60
2023/03/17 17:06:55;;;;;;;16.63;3.90;;;;;;;;;;10370727;28;20084;-60
2023/03/17 17:11:57;;;;;;;16.15;3.78;;;;;;;;;;10371043;28;20032;-60
2023/03/17 17:16:57;;;;;;;9.65;3.65;;;;;;;;;;10370387;28;20101;-60
2023/03/17 17:21:58;;;;;;;21.70;3.60;;;;;;;;;;10370460;28;20121;-60
2023/03/17 17:26:59;;;;;;;9.32;3.58;;;;;;;;;;10369424;28;20021;-59
2023/03/17 17:31:59;;;;;;;11.23;2.88;;;;;;;;;;10370136;28;20041;-60
2023/03/17 17:37:00;;;;;;;16.35;3.35;;;;;;;;;;10370361;28;20036;-60
2023/03/17 17:42:01;;;;;;;13.10;3.20;;;;;;;;;;10369093;28;20022;-60
2023/03/17 17:47:01;;;;;;;10.80;2.90;;;;;;;;;;10369459;28;20429;-59
2023/03/17 17:52:03;;;;;;;8.20;2.75;;;;;;;;;;10369259;28;20030;-58
2023/03/17 17:57:04;;;;;;;10.75;3.10;;;;;;;;;;10369134;28;20084;-59
2023/03/17 18:02:05;;;;;;;9.30;3.00;;;;;;;;;;10367287;28;20088;-59
2023/03/17 18:07:06;;;;;;;8.50;3.15;;;;;;;;;;10369079;28;20084;-58
2023/03/17 18:12:07;;;;;;;9.48;2.47;;;;;;;;;;10368252;28;20037;-58
2023/03/17 18:17:08;;;;;;;8.77;2.88;;;;;;;;;;10368229;28;20478;-59
2023/03/17 18:22:10;;;;;;;5.82;2.42;;;;;;;;;;10368341;28;20026;-60
2023/03/17 18:27:11;;;;;;;11.65;3.63;;;;;;;;;;10368514;28;20112;-60
2023/03/17 18:32:12;;;;;;;4.20;2.63;;;;;;;;;;10368176;28;20476;-59
2023/03/17 18:37:16;;;;;;;11.32;2.97;;;;;;;;;;10367084;28;20026;-60
2023/03/17 18:42:16;;;;;;;19.05;3.75;;;;;;;;;;10367512;28;20029;-59
2023/03/17 18:47:17;;;;;;;17.73;3.25;;;;;;;;;;10367224;28;20050;-61
2023/03/17 18:52:18;;;;;;;17.88;4.22;;;;;;;;;;10365220;28;20041;-60
2023/03/17 18:57:18;;;;;;;9.88;3.10;;;;;;;;;;10366353;28;20427;-59
2023/03/17 19:02:20;;;;;;;10.70;3.60;;;;;;;;;;10367011;28;20033;-60
2023/03/17 19:07:21;;;;;;;10.50;3.28;;;;;;;;;;10367153;28;20026;-61
2023/03/17 19:12:21;;;;;;;11.77;3.30;;;;;;;;;;10367015;28;20040;-60
2023/03/17 19:17:22;;;;;;;13.05;3.35;;;;;;;;;;10366904;28;20049;-60
2023/03/17 19:22:23;;;;;;;11.02;2.83;;;;;;;;;;10367007;28;20037;-61
2023/03/17 19:27:23;;;;;;;6.22;2.53;;;;;;;;;;10367611;28;20088;-61
2023/03/17 19:32:24;;;;;;;8.77;3.28;;;;;;;;;;10367561;28;20032;-61
2023/03/17 19:37:25;;;;;;;8.43;2.67;;;;;;;;;;10367438;28;20053;-60
2023/03/17 19:42:25;;;;;;;5.75;2.90;;;;;;;;;;10366343;28;20033;-59
2023/03/17 19:47:26;;;;;;;11.52;2.78;;;;;;;;;;10366661;28;20045;-60
2023/03/17 19:52:27;;;;;;;7.22;2.70;;;;;;;;;;10367890;28;20034;-60
2023/03/17 19:57:27;;;;;;;6.13;2.78;;;;;;;;;;10373967;28;20481;-60
2023/03/17 20:02:28;;;;;;;9.07;2.78;;;;;;;;;;10373671;28;20092;-61
2023/03/17 20:07:28;;;;;;;5.80;2.20;;;;;;;;;;10373748;28;20022;-60
2023/03/17 20:12:31;;;;;;;6.70;2.53;;;;;;;;;;10373932;28;20041;-60
2023/03/17 20:17:32;;;;;;;8.38;2.92;;;;;;;;;;10374262;28;20029;-61
2023/03/17 20:22:33;;;;;;;7.90;2.72;;;;;;;;;;10372883;28;20034;-59
2023/03/17 20:27:34;;;;;;;5.88;2.83;;;;;;;;;;10372852;28;20030;-59
2023/03/17 20:32:35;;;;;;;5.97;2.60;;;;;;;;;;10372995;28;20041;-59
2023/03/17 20:37:36;;;;;;;10.88;2.70;;;;;;;;;;10372339;28;20030;-58
2023/03/17 20:42:36;;;;;;;6.78;2.70;;;;;;;;;;10372305;28;20026;-59
2023/03/17 20:47:37;;;;;;;7.82;3.05;;;;;;;;;;10372352;28;20544;-58
2023/03/17 20:52:39;;;;;;;5.68;2.83;;;;;;;;;;10372379;28;20055;-59
2023/03/17 20:57:48;;;;;;;6.38;2.50;;;;;;;;;;10372060;28;20037;-58
2023/03/17 21:02:49;;;;;;;6.03;2.92;;;;;;;;;;10371561;28;20127;-59
2023/03/17 21:07:50;;;;;;;4.60;2.55;;;;;;;;;;10371707;28;20034;-59
2023/03/17 21:12:51;;;;;;;4.78;2.45;;;;;;;;;;10371607;28;20033;-59
2023/03/17 21:17:52;;;;;;;4.18;2.70;;;;;;;;;;10370775;28;20064;-59
2023/03/17 21:22:53;;;;;;;6.50;2.72;;;;;;;;;;10370413;28;20034;-59
2023/03/17 21:27:53;;;;;;;5.53;2.50;;;;;;;;;;10371515;28;20025;-59
2023/03/17 21:32:54;;;;;;;4.15;2.83;;;;;;;;;;10369543;28;20025;-59
2023/03/17 21:37:56;;;;;;;4.75;2.80;;;;;;;;;;10369324;28;20034;-59
2023/03/17 21:42:59;;;;;;;2.90;2.35;;;;;;;;;;10370122;28;20137;-58
2023/03/17 21:48:00;;;;;;;9.18;2.60;;;;;;;;;;10369534;28;20128;-59
2023/03/17 21:53:00;;;;;;;6.75;3.03;;;;;;;;;;10369928;28;20538;-58
2023/03/17 21:58:01;;;;;;;3.47;2.10;;;;;;;;;;10368646;28;20465;-59
2023/03/17 22:03:03;;;;;;;3.80;2.65;;;;;;;;;;10367023;28;20034;-58
2023/03/17 22:08:04;;;;;;;4.35;2.60;;;;;;;;;;10368311;28;20041;-59
2023/03/17 22:13:05;;;;;;;4.97;2.55;;;;;;;;;;10368755;28;20041;-60
2023/03/17 22:18:05;;;;;;;5.80;3.28;;;;;;;;;;10368307;28;20045;-61
2023/03/17 22:23:06;;;;;;;6.78;2.85;;;;;;;;;;10368688;28;20032;-58
2023/03/17 22:28:07;;;;;;;5.18;2.80;;;;;;;;;;10368212;28;20034;-58
2023/03/17 22:33:08;;;;;;;6.07;2.67;;;;;;;;;;10367270;28;20115;-58
2023/03/17 22:38:11;;;;;;;3.58;2.40;;;;;;;;;;10366790;28;20022;-58
2023/03/17 22:43:12;;;;;;;3.80;2.58;;;;;;;;;;10366747;28;20371;-58
2023/03/17 22:48:12;;;;;;;4.65;2.60;;;;;;;;;;10367610;28;20045;-59
2023/03/17 22:53:13;;;;;;;6.38;2.67;;;;;;;;;;10367828;28;20048;-59
2023/03/17 22:58:14;;;;;;;3.45;2.33;;;;;;;;;;10366865;28;20444;-60
2023/03/17 23:03:16;;;;;;;2.55;2.30;;;;;;;;;;10367378;28;20037;-60
2023/03/17 23:08:18;;;;;;;4.80;3.00;;;;;;;;;;10367287;28;20040;-60
2023/03/17 23:13:19;;;;;;;4.20;2.42;;;;;;;;;;10367781;28;20145;-60
2023/03/17 23:18:20;;;;;;;5.88;2.80;;;;;;;;;;10367524;28;20030;-60
2023/03/17 23:23:21;;;;;;;5.97;2.65;;;;;;;;;;10367512;28;20038;-60
2023/03/17 23:28:22;;;;;;;9.45;2.47;;;;;;;;;;10371692;28;20029;-60
2023/03/17 23:33:24;;;;;;;3.53;2.30;;;;;;;;;;10374668;28;20068;-59
2023/03/17 23:38:24;;;;;;;11.95;3.50;;;;;;;;;;10374109;28;20518;-59
2023/03/17 23:43:26;;;;;;;3.90;2.17;;;;;;;;;;10374057;28;20031;-59
2023/03/17 23:48:27;;;;;;;4.72;2.20;;;;;;;;;;10374138;28;20050;-59
2023/03/17 23:53:27;;;;;;;3.70;2.30;;;;;;;;;;10374653;28;20083;-59
2023/03/17 23:58:28;;;;;;;3.92;2.42;;;;;;;;;;10374410;28;20026;-59
